sensor_id;sensor_type;location;lat;lon;timestamp;P1;durP1;ratioP1;P2;durP2;ratioP2
3573;SDS011;1801;51.050;6.246;2023-05-02T00:01:01;76.20;;;32.77;;
3573;SDS011;1801;51.050;6.246;2023-05-02T00:03:28;78.97;;;35.40;;
3573;SDS011;1801;51.050;6.246;2023-05-02T00:05:54;85.03;;;36.03;;
3573;SDS011;1801;51.050;6.246;2023-05-02T00:08:19;86.07;;;33.90;;
3573;SDS011;1801;51.050;6.246;2023-05-02T00:10:44;80.83;;;33.60;;
3573;SDS011;1801;51.050;6.246;2023-05-02T00:13:09;81.50;;;33.90;;
3573;SDS011;1801;51.050;6.246;2023-05-02T00:15:35;85.67;;;35.17;;
3573;SDS011;1801;51.050;6.246;2023-05-02T00:18:00;85.43;;;35.13;;
3573;SDS011;1801;51.050;6.246;2023-05-02T00:20:25;90.00;;;36.00;;
3573;SDS011;1801;51.050;6.246;2023-05-02T00:22:50;96.90;;;37.97;;
3573;SDS011;1801;51.050;6.246;2023-05-02T00:25:16;97.13;;;34.67;;
3573;SDS011;1801;51.050;6.246;2023-05-02T00:27:41;95.23;;;36.80;;
3573;SDS011;1801;51.050;6.246;2023-05-02T00:30:07;88.33;;;35.77;;
3573;SDS011;1801;51.050;6.246;2023-05-02T00:32:32;99.10;;;36.13;;
3573;SDS011;1801;51.050;6.246;2023-05-02T00:34:57;103.13;;;38.33;;
3573;SDS011;1801;51.050;6.246;2023-05-02T00:37:25;99.33;;;39.10;;
3573;SDS011;1801;51.050;6.246;2023-05-02T00:39:50;107.77;;;40.37;;
3573;SDS011;1801;51.050;6.246;2023-05-02T00:42:15;116.97;;;41.63;;
3573;SDS011;1801;51.050;6.246;2023-05-02T00:44:40;118.23;;;44.47;;
3573;SDS011;1801;51.050;6.246;2023-05-02T00:47:06;113.80;;;41.57;;
3573;SDS011;1801;51.050;6.246;2023-05-02T00:49:32;102.80;;;40.63;;
3573;SDS011;1801;51.050;6.246;2023-05-02T00:51:57;106.60;;;40.87;;
3573;SDS011;1801;51.050;6.246;2023-05-02T00:54:22;106.37;;;42.47;;
3573;SDS011;1801;51.050;6.246;2023-05-02T00:56:48;103.30;;;41.70;;
3573;SDS011;1801;51.050;6.246;2023-05-02T00:59:13;111.10;;;37.77;;
3573;SDS011;1801;51.050;6.246;2023-05-02T01:04:10;104.97;;;43.00;;
3573;SDS011;1801;51.050;6.246;2023-05-02T01:06:49;96.47;;;40.60;;
3573;SDS011;1801;51.050;6.246;2023-05-02T01:11:57;98.17;;;40.20;;
3573;SDS011;1801;51.050;6.246;2023-05-02T01:14:27;98.17;;;37.60;;
3573;SDS011;1801;51.050;6.246;2023-05-02T01:16:53;111.47;;;39.67;;
3573;SDS011;1801;51.050;6.246;2023-05-02T01:19:42;105.23;;;38.70;;
3573;SDS011;1801;51.050;6.246;2023-05-02T01:22:09;107.67;;;40.77;;
3573;SDS011;1801;51.050;6.246;2023-05-02T01:24:40;98.87;;;38.23;;
3573;SDS011;1801;51.050;6.246;2023-05-02T01:30:07;92.07;;;35.70;;
3573;SDS011;1801;51.050;6.246;2023-05-02T01:32:33;95.20;;;37.80;;
3573;SDS011;1801;51.050;6.246;2023-05-02T01:35:01;108.07;;;39.43;;
3573;SDS011;1801;51.050;6.246;2023-05-02T01:37:27;104.00;;;40.60;;
3573;SDS011;1801;51.050;6.246;2023-05-02T01:39:54;109.17;;;44.27;;
3573;SDS011;1801;51.050;6.246;2023-05-02T01:42:20;108.68;;;43.17;;
3573;SDS011;1801;51.050;6.246;2023-05-02T01:44:46;108.70;;;41.30;;
3573;SDS011;1801;51.050;6.246;2023-05-02T01:47:12;118.37;;;41.90;;
3573;SDS011;1801;51.050;6.246;2023-05-02T01:49:39;99.30;;;39.33;;
3573;SDS011;1801;51.050;6.246;2023-05-02T01:52:06;111.27;;;39.90;;
3573;SDS011;1801;51.050;6.246;2023-05-02T01:54:32;100.40;;;39.40;;
3573;SDS011;1801;51.050;6.246;2023-05-02T01:56:59;102.67;;;40.10;;
3573;SDS011;1801;51.050;6.246;2023-05-02T01:59:25;102.07;;;38.13;;
3573;SDS011;1801;51.050;6.246;2023-05-02T02:01:52;101.80;;;39.00;;
3573;SDS011;1801;51.050;6.246;2023-05-02T02:04:18;110.13;;;43.87;;
3573;SDS011;1801;51.050;6.246;2023-05-02T02:06:45;99.60;;;41.70;;
3573;SDS011;1801;51.050;6.246;2023-05-02T02:09:12;111.17;;;40.00;;
3573;SDS011;1801;51.050;6.246;2023-05-02T02:11:43;128.33;;;43.70;;
3573;SDS011;1801;51.050;6.246;2023-05-02T02:14:17;118.00;;;43.07;;
3573;SDS011;1801;51.050;6.246;2023-05-02T02:16:43;126.97;;;44.00;;
3573;SDS011;1801;51.050;6.246;2023-05-02T02:19:09;120.33;;;46.07;;
3573;SDS011;1801;51.050;6.246;2023-05-02T02:21:35;125.23;;;45.07;;
3573;SDS011;1801;51.050;6.246;2023-05-02T02:24:02;120.70;;;45.70;;
3573;SDS011;1801;51.050;6.246;2023-05-02T02:26:29;115.60;;;45.40;;
3573;SDS011;1801;51.050;6.246;2023-05-02T02:28:54;113.43;;;45.20;;
3573;SDS011;1801;51.050;6.246;2023-05-02T02:31:19;117.33;;;41.40;;
3573;SDS011;1801;51.050;6.246;2023-05-02T02:33:45;112.73;;;39.30;;
3573;SDS011;1801;51.050;6.246;2023-05-02T02:36:14;119.77;;;42.40;;
3573;SDS011;1801;51.050;6.246;2023-05-02T02:38:53;118.93;;;42.70;;
3573;SDS011;1801;51.050;6.246;2023-05-02T02:41:31;114.17;;;40.80;;
3573;SDS011;1801;51.050;6.246;2023-05-02T02:44:03;120.93;;;42.13;;
3573;SDS011;1801;51.050;6.246;2023-05-02T02:49:16;121.53;;;38.80;;
3573;SDS011;1801;51.050;6.246;2023-05-02T02:51:49;120.77;;;38.93;;
3573;SDS011;1801;51.050;6.246;2023-05-02T02:54:20;118.30;;;40.03;;
3573;SDS011;1801;51.050;6.246;2023-05-02T02:56:47;110.73;;;40.90;;
3573;SDS011;1801;51.050;6.246;2023-05-02T02:59:16;127.20;;;40.63;;
3573;SDS011;1801;51.050;6.246;2023-05-02T03:04:23;114.60;;;40.80;;
3573;SDS011;1801;51.050;6.246;2023-05-02T03:06:50;119.37;;;40.03;;
3573;SDS011;1801;51.050;6.246;2023-05-02T03:09:15;112.27;;;42.50;;
3573;SDS011;1801;51.050;6.246;2023-05-02T03:11:43;121.13;;;41.03;;
3573;SDS011;1801;51.050;6.246;2023-05-02T03:14:10;116.43;;;40.70;;
3573;SDS011;1801;51.050;6.246;2023-05-02T03:19:01;125.70;;;43.30;;
3573;SDS011;1801;51.050;6.246;2023-05-02T03:21:26;123.07;;;40.60;;
3573;SDS011;1801;51.050;6.246;2023-05-02T03:23:52;118.13;;;40.33;;
3573;SDS011;1801;51.050;6.246;2023-05-02T03:26:17;134.43;;;45.57;;
3573;SDS011;1801;51.050;6.246;2023-05-02T03:28:42;113.27;;;39.60;;
3573;SDS011;1801;51.050;6.246;2023-05-02T03:31:11;103.43;;;37.07;;
3573;SDS011;1801;51.050;6.246;2023-05-02T03:33:36;97.90;;;35.37;;
3573;SDS011;1801;51.050;6.246;2023-05-02T03:36:01;97.07;;;34.67;;
3573;SDS011;1801;51.050;6.246;2023-05-02T03:38:28;104.03;;;36.83;;
3573;SDS011;1801;51.050;6.246;2023-05-02T03:40:55;94.87;;;36.87;;
3573;SDS011;1801;51.050;6.246;2023-05-02T03:43:20;107.60;;;35.10;;
3573;SDS011;1801;51.050;6.246;2023-05-02T03:45:45;109.23;;;33.93;;
3573;SDS011;1801;51.050;6.246;2023-05-02T03:48:11;83.37;;;31.10;;
3573;SDS011;1801;51.050;6.246;2023-05-02T03:50:36;87.97;;;31.90;;
3573;SDS011;1801;51.050;6.246;2023-05-02T03:53:01;81.27;;;30.20;;
3573;SDS011;1801;51.050;6.246;2023-05-02T03:55:26;68.20;;;27.13;;
3573;SDS011;1801;51.050;6.246;2023-05-02T03:57:52;65.87;;;25.13;;
3573;SDS011;1801;51.050;6.246;2023-05-02T04:00:17;70.23;;;25.97;;
3573;SDS011;1801;51.050;6.246;2023-05-02T04:02:43;61.00;;;26.10;;
3573;SDS011;1801;51.050;6.246;2023-05-02T04:05:08;64.07;;;26.53;;
3573;SDS011;1801;51.050;6.246;2023-05-02T04:07:33;55.40;;;20.57;;
3573;SDS011;1801;51.050;6.246;2023-05-02T04:09:59;64.37;;;21.27;;
3573;SDS011;1801;51.050;6.246;2023-05-02T04:12:24;53.27;;;21.13;;
3573;SDS011;1801;51.050;6.246;2023-05-02T04:14:49;49.40;;;19.60;;
3573;SDS011;1801;51.050;6.246;2023-05-02T04:17:14;52.90;;;19.07;;
3573;SDS011;1801;51.050;6.246;2023-05-02T04:19:40;47.17;;;19.63;;
3573;SDS011;1801;51.050;6.246;2023-05-02T04:22:05;41.80;;;14.30;;
3573;SDS011;1801;51.050;6.246;2023-05-02T04:24:30;46.50;;;17.10;;
3573;SDS011;1801;51.050;6.246;2023-05-02T04:26:56;33.07;;;14.30;;
3573;SDS011;1801;51.050;6.246;2023-05-02T04:29:21;36.97;;;14.90;;
3573;SDS011;1801;51.050;6.246;2023-05-02T04:31:46;38.03;;;13.83;;
3573;SDS011;1801;51.050;6.246;2023-05-02T04:34:12;34.87;;;14.33;;
3573;SDS011;1801;51.050;6.246;2023-05-02T04:36:38;32.77;;;14.63;;
3573;SDS011;1801;51.050;6.246;2023-05-02T04:39:03;33.23;;;13.67;;
3573;SDS011;1801;51.050;6.246;2023-05-02T04:41:30;37.27;;;14.30;;
3573;SDS011;1801;51.050;6.246;2023-05-02T04:43:56;30.17;;;13.67;;
3573;SDS011;1801;51.050;6.246;2023-05-02T04:46:21;31.63;;;14.03;;
3573;SDS011;1801;51.050;6.246;2023-05-02T04:48:46;37.63;;;14.10;;
3573;SDS011;1801;51.050;6.246;2023-05-02T04:51:11;37.90;;;15.53;;
3573;SDS011;1801;51.050;6.246;2023-05-02T04:53:37;39.90;;;14.87;;
3573;SDS011;1801;51.050;6.246;2023-05-02T04:56:02;38.43;;;15.77;;
3573;SDS011;1801;51.050;6.246;2023-05-02T04:58:27;38.13;;;16.47;;
3573;SDS011;1801;51.050;6.246;2023-05-02T05:00:53;32.00;;;12.67;;
3573;SDS011;1801;51.050;6.246;2023-05-02T05:03:18;40.10;;;14.07;;
3573;SDS011;1801;51.050;6.246;2023-05-02T05:05:43;34.80;;;13.53;;
3573;SDS011;1801;51.050;6.246;2023-05-02T05:08:09;38.73;;;14.57;;
3573;SDS011;1801;51.050;6.246;2023-05-02T05:10:34;34.83;;;13.80;;
3573;SDS011;1801;51.050;6.246;2023-05-02T05:13:00;43.00;;;15.67;;
3573;SDS011;1801;51.050;6.246;2023-05-02T05:15:25;43.30;;;15.57;;
3573;SDS011;1801;51.050;6.246;2023-05-02T05:17:51;39.83;;;15.00;;
3573;SDS011;1801;51.050;6.246;2023-05-02T05:20:16;38.77;;;15.20;;
3573;SDS011;1801;51.050;6.246;2023-05-02T05:22:41;43.33;;;15.53;;
3573;SDS011;1801;51.050;6.246;2023-05-02T05:25:07;39.07;;;15.47;;
3573;SDS011;1801;51.050;6.246;2023-05-02T05:27:32;42.00;;;16.57;;
3573;SDS011;1801;51.050;6.246;2023-05-02T05:29:58;51.73;;;20.20;;
3573;SDS011;1801;51.050;6.246;2023-05-02T05:32:23;52.93;;;18.87;;
3573;SDS011;1801;51.050;6.246;2023-05-02T05:34:53;29.43;;;13.50;;
3573;SDS011;1801;51.050;6.246;2023-05-02T05:37:18;35.97;;;14.57;;
3573;SDS011;1801;51.050;6.246;2023-05-02T05:39:43;44.57;;;12.53;;
3573;SDS011;1801;51.050;6.246;2023-05-02T05:42:08;49.33;;;15.80;;
3573;SDS011;1801;51.050;6.246;2023-05-02T05:44:34;42.30;;;20.03;;
3573;SDS011;1801;51.050;6.246;2023-05-02T05:46:59;60.40;;;25.57;;
3573;SDS011;1801;51.050;6.246;2023-05-02T05:49:25;57.90;;;23.20;;
3573;SDS011;1801;51.050;6.246;2023-05-02T05:51:50;48.73;;;21.43;;
3573;SDS011;1801;51.050;6.246;2023-05-02T05:54:15;57.87;;;25.47;;
3573;SDS011;1801;51.050;6.246;2023-05-02T05:56:41;55.67;;;24.73;;
3573;SDS011;1801;51.050;6.246;2023-05-02T05:59:06;53.40;;;23.90;;
3573;SDS011;1801;51.050;6.246;2023-05-02T06:01:31;41.83;;;19.20;;
3573;SDS011;1801;51.050;6.246;2023-05-02T06:03:58;45.23;;;19.67;;
3573;SDS011;1801;51.050;6.246;2023-05-02T06:06:23;48.70;;;18.80;;
3573;SDS011;1801;51.050;6.246;2023-05-02T06:08:48;50.03;;;20.67;;
3573;SDS011;1801;51.050;6.246;2023-05-02T06:11:13;50.77;;;19.87;;
3573;SDS011;1801;51.050;6.246;2023-05-02T06:13:38;37.67;;;17.33;;
3573;SDS011;1801;51.050;6.246;2023-05-02T06:16:04;38.40;;;15.93;;
3573;SDS011;1801;51.050;6.246;2023-05-02T06:18:29;49.00;;;17.27;;
3573;SDS011;1801;51.050;6.246;2023-05-02T06:20:55;49.07;;;20.10;;
3573;SDS011;1801;51.050;6.246;2023-05-02T06:23:20;54.77;;;17.37;;
3573;SDS011;1801;51.050;6.246;2023-05-02T06:25:45;36.87;;;14.90;;
3573;SDS011;1801;51.050;6.246;2023-05-02T06:28:10;36.20;;;14.17;;
3573;SDS011;1801;51.050;6.246;2023-05-02T06:30:35;27.40;;;12.67;;
3573;SDS011;1801;51.050;6.246;2023-05-02T06:33:02;33.90;;;12.40;;
3573;SDS011;1801;51.050;6.246;2023-05-02T06:35:28;23.53;;;10.57;;
3573;SDS011;1801;51.050;6.246;2023-05-02T06:37:53;24.67;;;11.63;;
3573;SDS011;1801;51.050;6.246;2023-05-02T06:40:18;29.00;;;11.80;;
3573;SDS011;1801;51.050;6.246;2023-05-02T06:42:43;31.97;;;7.70;;
3573;SDS011;1801;51.050;6.246;2023-05-02T06:45:08;14.40;;;6.77;;
3573;SDS011;1801;51.050;6.246;2023-05-02T06:47:34;14.57;;;6.30;;
3573;SDS011;1801;51.050;6.246;2023-05-02T06:49:59;12.30;;;5.90;;
3573;SDS011;1801;51.050;6.246;2023-05-02T06:52:24;12.07;;;5.27;;
3573;SDS011;1801;51.050;6.246;2023-05-02T06:54:50;9.83;;;5.43;;
3573;SDS011;1801;51.050;6.246;2023-05-02T06:57:15;9.33;;;4.63;;
3573;SDS011;1801;51.050;6.246;2023-05-02T06:59:40;13.33;;;5.33;;
3573;SDS011;1801;51.050;6.246;2023-05-02T07:02:05;17.93;;;4.73;;
3573;SDS011;1801;51.050;6.246;2023-05-02T07:04:30;12.80;;;4.03;;
3573;SDS011;1801;51.050;6.246;2023-05-02T07:06:56;9.43;;;4.40;;
3573;SDS011;1801;51.050;6.246;2023-05-02T07:09:21;11.83;;;4.87;;
3573;SDS011;1801;51.050;6.246;2023-05-02T07:11:46;9.83;;;3.40;;
3573;SDS011;1801;51.050;6.246;2023-05-02T07:14:11;7.40;;;4.27;;
3573;SDS011;1801;51.050;6.246;2023-05-02T07:16:37;11.80;;;3.30;;
3573;SDS011;1801;51.050;6.246;2023-05-02T07:19:02;6.47;;;3.00;;
3573;SDS011;1801;51.050;6.246;2023-05-02T07:21:28;5.37;;;2.77;;
3573;SDS011;1801;51.050;6.246;2023-05-02T07:23:53;5.47;;;3.13;;
3573;SDS011;1801;51.050;6.246;2023-05-02T07:26:24;4.47;;;2.37;;
3573;SDS011;1801;51.050;6.246;2023-05-02T07:29:09;10.00;;;3.87;;
3573;SDS011;1801;51.050;6.246;2023-05-02T07:31:35;7.40;;;3.93;;
3573;SDS011;1801;51.050;6.246;2023-05-02T07:34:00;11.60;;;4.07;;
3573;SDS011;1801;51.050;6.246;2023-05-02T07:36:25;15.80;;;3.00;;
3573;SDS011;1801;51.050;6.246;2023-05-02T07:38:50;11.77;;;3.30;;
3573;SDS011;1801;51.050;6.246;2023-05-02T07:41:15;7.20;;;2.90;;
3573;SDS011;1801;51.050;6.246;2023-05-02T07:43:41;7.80;;;3.20;;
3573;SDS011;1801;51.050;6.246;2023-05-02T07:46:06;7.40;;;3.53;;
3573;SDS011;1801;51.050;6.246;2023-05-02T07:48:31;6.90;;;3.60;;
3573;SDS011;1801;51.050;6.246;2023-05-02T07:51:04;5.70;;;2.63;;
3573;SDS011;1801;51.050;6.246;2023-05-02T07:53:29;6.80;;;4.10;;
3573;SDS011;1801;51.050;6.246;2023-05-02T07:55:54;9.60;;;3.90;;
3573;SDS011;1801;51.050;6.246;2023-05-02T07:58:20;14.70;;;5.57;;
3573;SDS011;1801;51.050;6.246;2023-05-02T08:00:45;12.37;;;3.97;;
3573;SDS011;1801;51.050;6.246;2023-05-02T08:03:10;10.00;;;3.47;;
3573;SDS011;1801;51.050;6.246;2023-05-02T08:05:35;5.33;;;3.17;;
3573;SDS011;1801;51.050;6.246;2023-05-02T08:08:00;7.13;;;3.10;;
3573;SDS011;1801;51.050;6.246;2023-05-02T08:10:26;11.20;;;3.70;;
3573;SDS011;1801;51.050;6.246;2023-05-02T08:12:52;5.40;;;3.23;;
3573;SDS011;1801;51.050;6.246;2023-05-02T08:15:17;11.07;;;2.53;;
3573;SDS011;1801;51.050;6.246;2023-05-02T08:17:43;4.47;;;2.30;;
3573;SDS011;1801;51.050;6.246;2023-05-02T08:20:08;11.60;;;2.33;;
3573;SDS011;1801;51.050;6.246;2023-05-02T08:22:33;6.57;;;2.30;;
3573;SDS011;1801;51.050;6.246;2023-05-02T08:24:58;6.60;;;2.30;;
3573;SDS011;1801;51.050;6.246;2023-05-02T08:27:24;8.33;;;3.00;;
3573;SDS011;1801;51.050;6.246;2023-05-02T08:29:49;6.23;;;2.63;;
3573;SDS011;1801;51.050;6.246;2023-05-02T08:32:14;9.10;;;2.43;;
3573;SDS011;1801;51.050;6.246;2023-05-02T08:34:39;7.50;;;2.80;;
3573;SDS011;1801;51.050;6.246;2023-05-02T08:37:08;6.50;;;2.20;;
3573;SDS011;1801;51.050;6.246;2023-05-02T08:39:33;3.80;;;2.33;;
3573;SDS011;1801;51.050;6.246;2023-05-02T08:41:58;9.00;;;4.00;;
3573;SDS011;1801;51.050;6.246;2023-05-02T08:44:24;10.23;;;3.53;;
3573;SDS011;1801;51.050;6.246;2023-05-02T08:46:49;5.13;;;1.93;;
3573;SDS011;1801;51.050;6.246;2023-05-02T08:49:16;5.73;;;2.57;;
3573;SDS011;1801;51.050;6.246;2023-05-02T08:51:42;8.37;;;2.50;;
3573;SDS011;1801;51.050;6.246;2023-05-02T08:54:09;4.63;;;2.30;;
3573;SDS011;1801;51.050;6.246;2023-05-02T08:56:34;6.83;;;3.27;;
3573;SDS011;1801;51.050;6.246;2023-05-02T08:59:00;5.30;;;2.83;;
3573;SDS011;1801;51.050;6.246;2023-05-02T09:01:27;3.70;;;2.60;;
3573;SDS011;1801;51.050;6.246;2023-05-02T09:03:54;8.27;;;3.57;;
3573;SDS011;1801;51.050;6.246;2023-05-02T09:06:21;5.67;;;2.40;;
3573;SDS011;1801;51.050;6.246;2023-05-02T09:08:47;7.63;;;2.10;;
3573;SDS011;1801;51.050;6.246;2023-05-02T09:11:13;12.63;;;3.40;;
3573;SDS011;1801;51.050;6.246;2023-05-02T09:13:48;3.80;;;2.00;;
3573;SDS011;1801;51.050;6.246;2023-05-02T09:16:15;3.50;;;2.57;;
3573;SDS011;1801;51.050;6.246;2023-05-02T09:18:42;9.00;;;3.50;;
3573;SDS011;1801;51.050;6.246;2023-05-02T09:21:10;3.67;;;2.63;;
3573;SDS011;1801;51.050;6.246;2023-05-02T09:26:11;6.83;;;3.50;;
3573;SDS011;1801;51.050;6.246;2023-05-02T09:28:37;11.67;;;2.60;;
3573;SDS011;1801;51.050;6.246;2023-05-02T09:31:06;12.60;;;2.60;;
3573;SDS011;1801;51.050;6.246;2023-05-02T09:33:32;4.60;;;2.17;;
3573;SDS011;1801;51.050;6.246;2023-05-02T09:35:58;10.70;;;2.73;;
3573;SDS011;1801;51.050;6.246;2023-05-02T09:38:23;11.10;;;3.07;;
3573;SDS011;1801;51.050;6.246;2023-05-02T09:40:52;10.67;;;3.37;;
3573;SDS011;1801;51.050;6.246;2023-05-02T09:43:19;10.57;;;3.60;;
3573;SDS011;1801;51.050;6.246;2023-05-02T09:45:44;5.90;;;2.20;;
3573;SDS011;1801;51.050;6.246;2023-05-02T09:48:19;13.00;;;3.17;;
3573;SDS011;1801;51.050;6.246;2023-05-02T09:50:45;10.07;;;3.23;;
3573;SDS011;1801;51.050;6.246;2023-05-02T09:53:10;7.60;;;3.30;;
3573;SDS011;1801;51.050;6.246;2023-05-02T09:55:35;11.53;;;4.23;;
3573;SDS011;1801;51.050;6.246;2023-05-02T09:58:01;8.57;;;2.80;;
3573;SDS011;1801;51.050;6.246;2023-05-02T10:03:06;5.90;;;3.17;;
3573;SDS011;1801;51.050;6.246;2023-05-02T10:05:33;9.07;;;3.30;;
3573;SDS011;1801;51.050;6.246;2023-05-02T10:08:00;10.40;;;3.80;;
3573;SDS011;1801;51.050;6.246;2023-05-02T10:10:26;19.07;;;3.47;;
3573;SDS011;1801;51.050;6.246;2023-05-02T10:12:51;6.87;;;2.70;;
3573;SDS011;1801;51.050;6.246;2023-05-02T10:15:17;15.13;;;3.23;;
3573;SDS011;1801;51.050;6.246;2023-05-02T10:17:46;15.37;;;2.53;;
3573;SDS011;1801;51.050;6.246;2023-05-02T10:20:12;9.50;;;2.90;;
3573;SDS011;1801;51.050;6.246;2023-05-02T10:22:40;6.83;;;2.57;;
3573;SDS011;1801;51.050;6.246;2023-05-02T10:25:06;10.43;;;2.67;;
3573;SDS011;1801;51.050;6.246;2023-05-02T10:27:31;9.33;;;2.20;;
3573;SDS011;1801;51.050;6.246;2023-05-02T10:29:57;14.27;;;4.70;;
3573;SDS011;1801;51.050;6.246;2023-05-02T10:32:22;8.13;;;2.77;;
3573;SDS011;1801;51.050;6.246;2023-05-02T10:34:50;8.60;;;2.90;;
3573;SDS011;1801;51.050;6.246;2023-05-02T10:37:16;7.07;;;3.20;;
3573;SDS011;1801;51.050;6.246;2023-05-02T10:39:42;14.87;;;3.20;;
3573;SDS011;1801;51.050;6.246;2023-05-02T10:42:07;10.73;;;3.00;;
3573;SDS011;1801;51.050;6.246;2023-05-02T10:44:36;8.73;;;3.20;;
3573;SDS011;1801;51.050;6.246;2023-05-02T10:47:20;9.60;;;3.10;;
3573;SDS011;1801;51.050;6.246;2023-05-02T10:55:12;7.30;;;3.00;;
3573;SDS011;1801;51.050;6.246;2023-05-02T11:00:21;8.00;;;3.67;;
3573;SDS011;1801;51.050;6.246;2023-05-02T11:02:47;6.67;;;3.00;;
3573;SDS011;1801;51.050;6.246;2023-05-02T11:05:12;6.93;;;3.30;;
3573;SDS011;1801;51.050;6.246;2023-05-02T11:07:37;6.83;;;3.20;;
3573;SDS011;1801;51.050;6.246;2023-05-02T11:12:46;9.87;;;3.60;;
3573;SDS011;1801;51.050;6.246;2023-05-02T11:15:13;7.73;;;3.30;;
3573;SDS011;1801;51.050;6.246;2023-05-02T11:18:23;10.97;;;3.60;;
3573;SDS011;1801;51.050;6.246;2023-05-02T11:20:25;13.23;;;4.10;;
3573;SDS011;1801;51.050;6.246;2023-05-02T11:22:50;8.70;;;3.27;;
3573;SDS011;1801;51.050;6.246;2023-05-02T11:30:57;10.13;;;3.23;;
3573;SDS011;1801;51.050;6.246;2023-05-02T11:33:23;6.30;;;2.80;;
3573;SDS011;1801;51.050;6.246;2023-05-02T11:35:48;6.10;;;3.20;;
3573;SDS011;1801;51.050;6.246;2023-05-02T11:38:14;11.30;;;3.20;;
3573;SDS011;1801;51.050;6.246;2023-05-02T11:40:39;9.37;;;3.13;;
3573;SDS011;1801;51.050;6.246;2023-05-02T11:43:11;5.03;;;3.20;;
3573;SDS011;1801;51.050;6.246;2023-05-02T11:45:37;11.50;;;2.97;;
3573;SDS011;1801;51.050;6.246;2023-05-02T11:48:06;10.10;;;3.30;;
3573;SDS011;1801;51.050;6.246;2023-05-02T11:50:32;6.80;;;3.13;;
3573;SDS011;1801;51.050;6.246;2023-05-02T11:52:57;15.40;;;3.50;;
3573;SDS011;1801;51.050;6.246;2023-05-02T11:55:22;19.37;;;4.00;;
3573;SDS011;1801;51.050;6.246;2023-05-02T11:57:48;10.13;;;4.07;;
3573;SDS011;1801;51.050;6.246;2023-05-02T12:00:13;7.47;;;3.50;;
3573;SDS011;1801;51.050;6.246;2023-05-02T12:02:40;9.70;;;2.70;;
3573;SDS011;1801;51.050;6.246;2023-05-02T12:05:06;9.73;;;3.00;;
3573;SDS011;1801;51.050;6.246;2023-05-02T12:10:01;13.47;;;3.10;;
3573;SDS011;1801;51.050;6.246;2023-05-02T12:12:26;8.80;;;3.97;;
3573;SDS011;1801;51.050;6.246;2023-05-02T12:14:51;8.40;;;3.90;;
3573;SDS011;1801;51.050;6.246;2023-05-02T12:17:16;9.93;;;4.00;;
3573;SDS011;1801;51.050;6.246;2023-05-02T12:19:41;12.03;;;3.67;;
3573;SDS011;1801;51.050;6.246;2023-05-02T12:22:08;7.90;;;3.33;;
3573;SDS011;1801;51.050;6.246;2023-05-02T12:24:33;9.73;;;3.43;;
3573;SDS011;1801;51.050;6.246;2023-05-02T12:27:13;10.73;;;3.63;;
3573;SDS011;1801;51.050;6.246;2023-05-02T12:29:39;11.57;;;3.57;;
3573;SDS011;1801;51.050;6.246;2023-05-02T12:32:04;11.80;;;3.77;;
3573;SDS011;1801;51.050;6.246;2023-05-02T12:34:30;8.43;;;4.40;;
3573;SDS011;1801;51.050;6.246;2023-05-02T12:36:56;8.50;;;3.50;;
3573;SDS011;1801;51.050;6.246;2023-05-02T12:39:32;9.30;;;4.90;;
3573;SDS011;1801;51.050;6.246;2023-05-02T12:41:58;9.53;;;3.70;;
3573;SDS011;1801;51.050;6.246;2023-05-02T12:44:56;6.43;;;4.07;;
3573;SDS011;1801;51.050;6.246;2023-05-02T12:47:18;20.93;;;3.83;;
3573;SDS011;1801;51.050;6.246;2023-05-02T12:52:15;9.33;;;3.00;;
3573;SDS011;1801;51.050;6.246;2023-05-02T12:54:41;15.00;;;3.90;;
3573;SDS011;1801;51.050;6.246;2023-05-02T12:57:06;6.67;;;3.03;;
3573;SDS011;1801;51.050;6.246;2023-05-02T12:59:32;10.33;;;3.73;;
3573;SDS011;1801;51.050;6.246;2023-05-02T13:01:57;8.93;;;4.07;;
3573;SDS011;1801;51.050;6.246;2023-05-02T13:04:33;9.87;;;3.10;;
3573;SDS011;1801;51.050;6.246;2023-05-02T13:06:58;11.73;;;4.10;;
3573;SDS011;1801;51.050;6.246;2023-05-02T13:09:23;7.83;;;3.50;;
3573;SDS011;1801;51.050;6.246;2023-05-02T13:11:48;8.83;;;3.70;;
3573;SDS011;1801;51.050;6.246;2023-05-02T13:14:14;12.73;;;3.87;;
3573;SDS011;1801;51.050;6.246;2023-05-02T13:16:39;13.07;;;3.73;;
3573;SDS011;1801;51.050;6.246;2023-05-02T13:19:04;8.53;;;3.80;;
3573;SDS011;1801;51.050;6.246;2023-05-02T13:21:30;12.97;;;3.67;;
3573;SDS011;1801;51.050;6.246;2023-05-02T13:23:55;10.43;;;4.10;;
3573;SDS011;1801;51.050;6.246;2023-05-02T13:26:22;12.07;;;4.47;;
3573;SDS011;1801;51.050;6.246;2023-05-02T13:28:47;9.90;;;3.90;;
3573;SDS011;1801;51.050;6.246;2023-05-02T13:31:13;7.53;;;3.10;;
3573;SDS011;1801;51.050;6.246;2023-05-02T13:33:38;6.50;;;3.20;;
3573;SDS011;1801;51.050;6.246;2023-05-02T13:36:03;6.93;;;3.03;;
3573;SDS011;1801;51.050;6.246;2023-05-02T13:38:28;8.40;;;3.23;;
3573;SDS011;1801;51.050;6.246;2023-05-02T13:40:54;21.43;;;3.93;;
3573;SDS011;1801;51.050;6.246;2023-05-02T13:43:19;12.83;;;3.90;;
3573;SDS011;1801;51.050;6.246;2023-05-02T13:45:45;9.30;;;3.47;;
3573;SDS011;1801;51.050;6.246;2023-05-02T13:48:12;6.10;;;3.30;;
3573;SDS011;1801;51.050;6.246;2023-05-02T13:50:37;10.80;;;3.20;;
3573;SDS011;1801;51.050;6.246;2023-05-02T13:53:03;7.00;;;2.90;;
3573;SDS011;1801;51.050;6.246;2023-05-02T13:55:28;10.10;;;3.53;;
3573;SDS011;1801;51.050;6.246;2023-05-02T13:57:53;7.80;;;3.00;;
3573;SDS011;1801;51.050;6.246;2023-05-02T14:00:18;6.17;;;3.40;;
3573;SDS011;1801;51.050;6.246;2023-05-02T14:02:45;6.93;;;3.43;;
3573;SDS011;1801;51.050;6.246;2023-05-02T14:05:12;10.77;;;3.90;;
3573;SDS011;1801;51.050;6.246;2023-05-02T14:07:37;6.07;;;3.23;;
3573;SDS011;1801;51.050;6.246;2023-05-02T14:10:02;13.50;;;3.87;;
3573;SDS011;1801;51.050;6.246;2023-05-02T14:12:28;10.07;;;3.50;;
3573;SDS011;1801;51.050;6.246;2023-05-02T14:14:53;6.63;;;3.90;;
3573;SDS011;1801;51.050;6.246;2023-05-02T14:17:18;8.50;;;4.03;;
3573;SDS011;1801;51.050;6.246;2023-05-02T14:19:43;9.83;;;3.50;;
3573;SDS011;1801;51.050;6.246;2023-05-02T14:22:08;12.87;;;5.10;;
3573;SDS011;1801;51.050;6.246;2023-05-02T14:24:33;9.03;;;3.60;;
3573;SDS011;1801;51.050;6.246;2023-05-02T14:26:59;9.50;;;3.93;;
3573;SDS011;1801;51.050;6.246;2023-05-02T14:29:25;9.37;;;3.70;;
3573;SDS011;1801;51.050;6.246;2023-05-02T14:31:50;6.30;;;3.80;;
3573;SDS011;1801;51.050;6.246;2023-05-02T14:34:15;9.13;;;3.77;;
3573;SDS011;1801;51.050;6.246;2023-05-02T14:36:41;9.53;;;3.77;;
3573;SDS011;1801;51.050;6.246;2023-05-02T14:39:06;9.53;;;3.80;;
3573;SDS011;1801;51.050;6.246;2023-05-02T14:41:31;7.77;;;3.60;;
3573;SDS011;1801;51.050;6.246;2023-05-02T14:43:56;7.23;;;3.33;;
3573;SDS011;1801;51.050;6.246;2023-05-02T14:46:21;9.00;;;3.40;;
3573;SDS011;1801;51.050;6.246;2023-05-02T14:48:47;6.67;;;3.90;;
3573;SDS011;1801;51.050;6.246;2023-05-02T14:51:12;5.87;;;3.13;;
3573;SDS011;1801;51.050;6.246;2023-05-02T14:53:37;6.40;;;3.20;;
3573;SDS011;1801;51.050;6.246;2023-05-02T14:56:03;8.73;;;3.90;;
3573;SDS011;1801;51.050;6.246;2023-05-02T14:58:28;4.50;;;3.60;;
3573;SDS011;1801;51.050;6.246;2023-05-02T15:00:54;5.80;;;3.43;;
3573;SDS011;1801;51.050;6.246;2023-05-02T15:03:19;9.97;;;4.37;;
3573;SDS011;1801;51.050;6.246;2023-05-02T15:05:44;9.20;;;3.87;;
3573;SDS011;1801;51.050;6.246;2023-05-02T15:08:10;8.03;;;3.90;;
3573;SDS011;1801;51.050;6.246;2023-05-02T15:10:35;9.73;;;4.30;;
3573;SDS011;1801;51.050;6.246;2023-05-02T15:13:00;12.73;;;6.00;;
3573;SDS011;1801;51.050;6.246;2023-05-02T15:15:27;12.20;;;4.50;;
3573;SDS011;1801;51.050;6.246;2023-05-02T15:17:52;9.50;;;4.00;;
3573;SDS011;1801;51.050;6.246;2023-05-02T15:20:18;8.07;;;4.17;;
3573;SDS011;1801;51.050;6.246;2023-05-02T15:22:43;7.80;;;4.60;;
3573;SDS011;1801;51.050;6.246;2023-05-02T15:25:08;8.40;;;4.53;;
3573;SDS011;1801;51.050;6.246;2023-05-02T15:27:34;8.30;;;3.87;;
3573;SDS011;1801;51.050;6.246;2023-05-02T15:29:59;13.83;;;4.10;;
3573;SDS011;1801;51.050;6.246;2023-05-02T15:32:26;5.97;;;3.60;;
3573;SDS011;1801;51.050;6.246;2023-05-02T15:34:51;6.60;;;3.60;;